createdAt,value
2022-12-19T00:03:25.053Z,94820.84
2022-12-19T00:08:30.044Z,94827.59
2022-12-19T00:13:40.749Z,94830.56
2022-12-19T00:18:46.343Z,94830.59
2022-12-19T00:23:51.442Z,94831.78
2022-12-19T00:29:03.490Z,94829.31
2022-12-19T00:34:07.203Z,94833.19
2022-12-19T00:39:12.005Z,94837.31
2022-12-19T00:44:15.372Z,94841.19
2022-12-19T00:49:18.903Z,94837.69
2022-12-19T00:54:24.632Z,94838.97
2022-12-19T00:59:28.072Z,94837.91
2022-12-19T01:04:38.231Z,94837.41
2022-12-19T01:09:48.062Z,94838.88
2022-12-19T01:14:58.785Z,94854.59
2022-12-19T01:20:08.430Z,94864.25
2022-12-19T01:25:14.184Z,94860.59
2022-12-19T01:30:17.623Z,94854.06
2022-12-19T01:35:22.967Z,94854.56
2022-12-19T01:40:27.122Z,94850.94
2022-12-19T01:45:34.961Z,94859.41
2022-12-19T01:51:00.830Z,94850.00
2022-12-19T01:56:10.603Z,94854.16
2022-12-19T02:01:15.300Z,94859.44
2022-12-19T02:06:19.721Z,94866.00
2022-12-19T02:11:23.807Z,94857.38
2022-12-19T02:16:33.264Z,94858.97
2022-12-19T02:21:51.234Z,94858.97
2022-12-19T02:27:28.192Z,94862.00
2022-12-19T02:32:57.857Z,94854.03
2022-12-19T02:38:20.082Z,94849.25
2022-12-19T02:43:27.248Z,94852.28
2022-12-19T02:48:31.369Z,94862.66
2022-12-19T02:53:37.773Z,94862.97
2022-12-19T02:58:55.968Z,94861.19
2022-12-19T03:04:05.208Z,94870.13
2022-12-19T03:09:20.459Z,94859.94
2022-12-19T03:14:25.083Z,94862.34
2022-12-19T03:19:32.636Z,94859.16
2022-12-19T03:24:36.345Z,94858.19
2022-12-19T03:29:46.263Z,94864.09
2022-12-19T03:35:04.479Z,94865.97
2022-12-19T03:40:20.788Z,94865.00
2022-12-19T03:45:41.718Z,94874.75
2022-12-19T03:51:01.780Z,94876.97
2022-12-19T03:56:17.737Z,94876.50
2022-12-19T04:01:22.246Z,94876.63
2022-12-19T04:06:29.799Z,94877.44
2022-12-19T04:11:43.332Z,94881.22
2022-12-19T04:16:56.000Z,94879.31
2022-12-19T04:22:17.056Z,94879.97
2022-12-19T04:27:22.853Z,94883.47
2022-12-19T04:32:28.140Z,94888.38
2022-12-19T04:37:32.569Z,94885.69
2022-12-19T04:42:36.756Z,94894.56
2022-12-19T04:47:40.725Z,94900.47
2022-12-19T04:52:44.986Z,94892.34
2022-12-19T04:57:48.017Z,94896.34
2022-12-19T05:02:52.043Z,94889.34
2022-12-19T05:07:58.265Z,94891.25
2022-12-19T05:13:01.617Z,94891.91
2022-12-19T05:18:05.495Z,94906.09
2022-12-19T05:23:16.224Z,94897.16
2022-12-19T05:28:20.527Z,94901.44
2022-12-19T05:33:26.799Z,94905.88
2022-12-19T05:38:30.319Z,94912.06
2022-12-19T05:43:34.301Z,94914.75
2022-12-19T05:48:38.179Z,94926.25
2022-12-19T05:53:42.126Z,94922.56
2022-12-19T05:58:45.826Z,94921.00
2022-12-19T06:03:50.627Z,94929.56
2022-12-19T06:08:55.560Z,94939.28
2022-12-19T06:13:59.110Z,94935.34
2022-12-19T06:19:02.574Z,94942.75
2022-12-19T06:24:06.713Z,94929.03
2022-12-19T06:29:10.435Z,94929.56
2022-12-19T06:34:27.307Z,94932.00
2022-12-19T06:39:37.706Z,94934.59
2022-12-19T06:44:40.986Z,94935.41
2022-12-19T06:49:44.613Z,94943.72
2022-12-19T06:54:48.221Z,94947.22
2022-12-19T06:59:51.342Z,94942.06
2022-12-19T07:05:04.370Z,94942.09
2022-12-19T07:10:09.528Z,94948.69
2022-12-19T07:15:12.933Z,94956.31
2022-12-19T07:20:17.330Z,94958.06
2022-12-19T07:25:20.475Z,94952.56
2022-12-19T07:30:23.539Z,94952.44
2022-12-19T07:35:27.322Z,94956.56
2022-12-19T07:40:34.108Z,94941.00
2022-12-19T07:45:39.906Z,94937.72
2022-12-19T07:50:43.683Z,94932.63
2022-12-19T07:55:50.612Z,94929.69
2022-12-19T08:00:54.912Z,94937.50
2022-12-19T08:06:03.299Z,94935.47
2022-12-19T08:11:09.474Z,94938.59
2022-12-19T08:16:13.321Z,94926.91
2022-12-19T08:21:16.869Z,94934.56
2022-12-19T08:26:25.454Z,94949.44
2022-12-19T08:31:29.055Z,94954.97
2022-12-19T08:36:33.221Z,94964.81
2022-12-19T08:41:37.339Z,94972.59
2022-12-19T08:46:44.971Z,94972.84
2022-12-19T08:51:52.325Z,94954.72
2022-12-19T08:56:55.386Z,94959.22
2022-12-19T09:01:59.897Z,94962.88
2022-12-19T09:07:03.991Z,94954.88
2022-12-19T09:12:07.827Z,94972.91
2022-12-19T09:17:11.588Z,94961.09
2022-12-19T09:22:16.515Z,94954.28
2022-12-19T09:27:19.619Z,94947.59
2022-12-19T09:32:22.964Z,94965.97
2022-12-19T09:37:26.851Z,94960.44
2022-12-19T09:43:02.459Z,94965.84
2022-12-19T09:48:17.797Z,94952.53
2022-12-19T09:53:39.086Z,94944.88
2022-12-19T09:58:48.531Z,94937.25
2022-12-19T10:04:18.632Z,94936.84
2022-12-19T10:12:18.062Z,94929.78
2022-12-19T10:15:07.473Z,94922.28
2022-12-19T10:20:27.238Z,94906.91
2022-12-19T10:25:45.593Z,94911.56
2022-12-19T10:31:01.495Z,94901.34
2022-12-19T10:36:12.672Z,94895.13
2022-12-19T10:41:25.586Z,94893.13
2022-12-19T10:46:50.142Z,94889.13
2022-12-19T10:51:56.446Z,94890.63
2022-12-19T10:57:23.159Z,94883.72
2022-12-19T11:02:35.590Z,94877.53
2022-12-19T11:07:38.859Z,94869.16
2022-12-19T11:17:35.990Z,94874.69
2022-12-19T11:23:29.552Z,94862.91
2022-12-19T11:29:38.157Z,94861.41
2022-12-19T11:35:36.490Z,94848.66
2022-12-19T11:40:49.693Z,94844.88
2022-12-19T11:46:06.081Z,94836.63
2022-12-19T11:51:27.907Z,94838.44
2022-12-19T11:56:32.037Z,94840.97
2022-12-19T12:01:55.633Z,94840.09
2022-12-19T12:07:02.455Z,94830.19
2022-12-19T12:19:39.149Z,94825.88
2022-12-19T12:31:04.008Z,94825.81
2022-12-19T12:31:43.658Z,94819.91
2022-12-19T12:31:55.328Z,94826.31
2022-12-19T12:41:17.903Z,94825.56
2022-12-19T12:46:26.730Z,94827.34
2022-12-19T12:51:33.591Z,94810.56
2022-12-19T12:56:38.882Z,94828.81
2022-12-19T13:01:42.530Z,94816.53
2022-12-19T13:06:51.406Z,94820.25
2022-12-19T13:12:44.438Z,94823.06
2022-12-19T13:17:48.029Z,94817.66
2022-12-19T13:22:59.038Z,94823.31
2022-12-19T13:28:02.065Z,94824.09
2022-12-19T13:33:05.811Z,94822.69
2022-12-19T13:39:59.968Z,94825.38
2022-12-19T13:44:00.638Z,94815.88
2022-12-19T13:49:12.676Z,94813.63
2022-12-19T13:54:34.885Z,94823.94
2022-12-19T13:59:40.530Z,94824.03
2022-12-19T14:05:03.694Z,94825.84
2022-12-19T14:11:32.919Z,94826.94
2022-12-19T14:15:41.485Z,94825.19
2022-12-19T14:22:06.374Z,94822.63
2022-12-19T14:28:19.303Z,94824.50
2022-12-19T14:33:40.072Z,94822.69
2022-12-19T14:38:03.652Z,94832.56
2022-12-19T14:50:42.627Z,94816.56
2022-12-19T14:54:16.796Z,94832.50
2022-12-19T14:59:48.876Z,94839.00
2022-12-19T15:05:08.124Z,94833.06
2022-12-19T15:11:08.384Z,94846.38
2022-12-19T15:15:59.070Z,94843.44
2022-12-19T15:21:06.234Z,94840.91
2022-12-19T15:26:16.836Z,94844.91
2022-12-19T15:31:41.024Z,94841.06
2022-12-19T15:36:44.860Z,94831.13
2022-12-19T15:41:50.738Z,94840.19
2022-12-19T15:46:55.858Z,94850.38
2022-12-19T15:51:59.158Z,94844.47
2022-12-19T15:57:02.257Z,94836.94
2022-12-19T16:02:42.651Z,94845.66
2022-12-19T16:07:50.123Z,94844.56
2022-12-19T16:12:58.144Z,94848.22
2022-12-19T16:18:04.271Z,94852.38
2022-12-19T16:23:08.757Z,94851.66
2022-12-19T16:28:39.261Z,94853.41
2022-12-19T16:33:42.424Z,94859.91
2022-12-19T16:38:45.627Z,94865.56
2022-12-19T16:43:49.748Z,94877.38
2022-12-19T16:48:53.694Z,94881.16
2022-12-19T16:54:00.909Z,94884.22
2022-12-19T16:59:16.621Z,94868.75
2022-12-19T17:04:22.727Z,94872.53
2022-12-19T17:09:26.471Z,94868.34
2022-12-19T17:14:32.404Z,94870.25
2022-12-19T17:19:42.128Z,94881.88
2022-12-19T17:24:47.865Z,94875.63
2022-12-19T17:29:50.987Z,94884.47
2022-12-19T17:34:54.677Z,94886.81
2022-12-19T17:39:57.828Z,94881.38
2022-12-19T17:45:00.902Z,94896.72
2022-12-19T17:50:05.772Z,94883.47
2022-12-19T17:55:28.132Z,94891.78
2022-12-19T18:00:33.925Z,94899.28
2022-12-19T18:05:37.715Z,94897.75
2022-12-19T18:10:40.783Z,94899.72
2022-12-19T18:15:44.133Z,94892.25
2022-12-19T18:20:47.289Z,94897.72
2022-12-19T18:25:57.522Z,94898.09
2022-12-19T18:31:18.742Z,94903.59
2022-12-19T18:36:27.602Z,94899.28
2022-12-19T18:41:30.853Z,94893.25
2022-12-19T18:46:34.778Z,94898.22
2022-12-19T18:51:38.670Z,94898.72
2022-12-19T18:56:42.141Z,94895.50
2022-12-19T19:01:47.411Z,94897.59
2022-12-19T19:06:53.763Z,94900.63
2022-12-19T19:11:57.677Z,94888.66
2022-12-19T19:17:00.985Z,94901.75
2022-12-19T19:22:04.801Z,94902.25
2022-12-19T19:27:08.383Z,94906.53
2022-12-19T19:32:12.315Z,94912.56
2022-12-19T19:37:16.027Z,94921.53
2022-12-19T19:42:19.279Z,94906.50
2022-12-19T19:47:28.073Z,94916.97
2022-12-19T19:52:32.235Z,94922.03
2022-12-19T19:57:35.855Z,94904.94
2022-12-19T20:02:40.031Z,94910.00
2022-12-19T20:07:43.527Z,94908.38
2022-12-19T20:12:47.003Z,94909.94
2022-12-19T20:17:51.806Z,94899.41
2022-12-19T20:22:55.961Z,94904.16
2022-12-19T20:27:59.663Z,94897.47
2022-12-19T20:33:03.884Z,94897.81
2022-12-19T20:38:06.928Z,94904.47
2022-12-19T20:43:10.208Z,94898.50
2022-12-19T20:48:13.957Z,94898.72
2022-12-19T20:53:17.618Z,94896.81
2022-12-19T20:58:20.884Z,94904.72
2022-12-19T21:03:28.273Z,94911.81
2022-12-19T21:08:33.625Z,94907.94
2022-12-19T21:13:38.934Z,94912.13
2022-12-19T21:18:43.491Z,94914.13
2022-12-19T21:23:47.207Z,94914.75
2022-12-19T21:28:51.429Z,94916.28
2022-12-19T21:34:01.870Z,94915.16
2022-12-19T21:39:06.689Z,94907.28
2022-12-19T21:44:11.682Z,94903.09
2022-12-19T21:49:15.378Z,94904.81
2022-12-19T21:54:18.482Z,94915.25
2022-12-19T21:59:22.339Z,94902.47
2022-12-19T22:04:27.677Z,94901.94
2022-12-19T22:09:30.694Z,94902.78
2022-12-19T22:14:35.676Z,94895.44
2022-12-19T22:19:41.056Z,94890.78
2022-12-19T22:24:44.284Z,94892.06
2022-12-19T22:29:48.229Z,94894.72
2022-12-19T22:34:51.442Z,94892.59
2022-12-19T22:39:57.065Z,94886.97
2022-12-19T22:45:00.827Z,94885.00
2022-12-19T22:50:04.685Z,94893.56
2022-12-19T22:55:08.211Z,94885.50
2022-12-19T23:00:14.592Z,94892.25
2022-12-19T23:05:17.884Z,94884.72
2022-12-19T23:10:21.831Z,94889.13
2022-12-19T23:15:25.411Z,94883.25
2022-12-19T23:20:28.911Z,94873.00
2022-12-19T23:25:33.123Z,94864.19
2022-12-19T23:30:37.440Z,94868.91
2022-12-19T23:35:42.828Z,94858.22
2022-12-19T23:40:46.746Z,94859.03
2022-12-19T23:45:49.873Z,94854.59
2022-12-19T23:51:04.326Z,94847.03
2022-12-19T23:56:13.263Z,94840.66
